Petersburg, AK

9:40 PM AKST on February 13, 2016 (GMT -0900)
Johnson Petersburg | | Change Station
CLOSE
Current Station
Airport
Location: Petersburg,
Elevation: 0 ft
Nearby Weather Stations

Elev 0 ft 56.82 °N, 132.97 °W | Updated 4 minutes ago

Overcast
Overcast
39 °F
Feels Like 39 °F
N
0
Wind Variable Wind from North

Today
High -- | Low -- °F
--% Chance of Precip.
Yesterday
High -- | Low -- °F
Precip. -- in
Pressure 29.65 in
Visibility 10.0 miles
Clouds Few 3300 ft
Overcast 4600 ft
Dew Point 36 °F
Humidity 87%
Rainfall 0.19 in
Snow Depth Not available.
7:26 AM 4:49 PM
Waxing Crescent, 38% visible
METAR PAPG 140636Z 00000KT 10SM FEW033 OVC046 04/02 A2965 RMK AO1 -SHRA
Pressure 29.65 in
Visibility 10.0 miles
Clouds Few 3300 ft
Overcast 4600 ft
Dew Point 36 °F
Humidity 87%
Rainfall 0.19 in
Snow Depth Not available.
7:26 AM 4:49 PM
Waxing Crescent, 38% visible
METAR PAPG 140636Z 00000KT 10SM FEW033 OVC046 04/02 A2965 RMK AO1 -SHRA

10-Day Weather Forecast

Almanac

Astronomy

Feb. 13, 2016 Rise Set
Actual Time
Civil Twilight
Nautical Twilight
Astronomical Twilight
Moon
Length of Visible Light
Length of Day
Tomorrow will be .
, % of the Moon is Illuminated

Today's Extremes

State Highs State Lows

Community

WunderPhotos

Upload Photos

1,892,757 photos uploaded!

WunderBlog® & News

Nearby

Air Quality

  Air Quality AQ Index Pollutant
Not available.

Snow Depth

Station Depth Elevation

Earthquake Activity

City Distance Mag. Time & Date
Minimum magnitude displayed is 2.5.

Coastal Water Temperatures

Place Temperature

Stations

Nearby Weather Stations

Station Location Temp. Windchill Dew Point Humidity Wind Precip. Elev Updated Type
                   

Watches & Warnings

There are currently no watches in effect.